createdAt,value
2023-06-08T03:56:49.086Z,100286.25
2023-06-08T03:59:51.615Z,100280.97
2023-06-08T04:02:54.308Z,100292.44
2023-06-08T04:05:57.870Z,100281.81
2023-06-08T04:09:01.321Z,100280.87
2023-06-08T04:12:04.376Z,100274.53
2023-06-08T04:15:07.547Z,100269.16
2023-06-08T04:18:12.968Z,100275.25
2023-06-08T04:21:15.867Z,100276.03
2023-06-08T04:24:18.752Z,100274.91
2023-06-08T04:27:21.095Z,100279.25
2023-06-08T04:30:23.704Z,100281.03
2023-06-08T04:33:27.776Z,100284.63
2023-06-08T04:36:30.823Z,100287.22
2023-06-08T04:39:33.241Z,100284.59
2023-06-08T04:42:35.721Z,100280.97
2023-06-08T04:45:38.462Z,100285.28
2023-06-08T04:48:40.929Z,100283.50
2023-06-08T04:51:47.264Z,100280.84
2023-06-08T04:54:53.759Z,100286.22
2023-06-08T04:57:56.606Z,100290.75
2023-06-08T05:00:59.497Z,100286.22
2023-06-08T05:04:02.871Z,100295.94
2023-06-08T05:07:05.910Z,100296.69
2023-06-08T05:10:08.740Z,100298.50
2023-06-08T05:13:11.471Z,100297.56
2023-06-08T05:16:13.910Z,100300.06
2023-06-08T05:19:16.435Z,100294.72
2023-06-08T05:22:18.829Z,100303.53
2023-06-08T05:25:21.392Z,100306.28
2023-06-08T05:28:23.727Z,100310.63
2023-06-08T05:31:27.969Z,100309.56
2023-06-08T05:34:30.282Z,100305.91
2023-06-08T05:37:32.934Z,100300.66
2023-06-08T05:40:35.654Z,100295.25
2023-06-08T05:43:38.108Z,100299.53
2023-06-08T05:46:40.499Z,100298.72
2023-06-08T05:49:42.980Z,100298.66
2023-06-08T05:52:45.605Z,100300.41
2023-06-08T05:55:48.301Z,100305.63
2023-06-08T05:58:50.826Z,100300.34
2023-06-08T06:01:54.537Z,100300.06
2023-06-08T06:04:57.561Z,100304.41
2023-06-08T06:07:59.924Z,100308.81
2023-06-08T06:11:02.374Z,100296.44
2023-06-08T06:14:04.584Z,100299.91
2023-06-08T06:17:09.057Z,100300.78
2023-06-08T06:20:11.757Z,100296.50
2023-06-08T06:23:14.240Z,100304.44
2023-06-08T06:26:17.426Z,100306.97
2023-06-08T06:29:19.956Z,100299.75
2023-06-08T06:32:22.487Z,100304.84
2023-06-08T06:35:25.768Z,100301.25
2023-06-08T06:38:27.993Z,100310.12
2023-06-08T06:41:30.508Z,100306.53
2023-06-08T06:44:32.646Z,100305.56
2023-06-08T06:47:35.424Z,100297.75
2023-06-08T06:50:37.658Z,100308.88
2023-06-08T06:53:40.204Z,100301.03
2023-06-08T06:56:42.717Z,100306.53
2023-06-08T06:59:47.283Z,100303.66
2023-06-08T07:02:49.935Z,100304.66
2023-06-08T07:05:52.422Z,100304.53
2023-06-08T07:08:54.648Z,100299.97
2023-06-08T07:12:13.583Z,100304.34
2023-06-08T07:15:18.240Z,100302.50
2023-06-08T07:18:21.188Z,100303.12
2023-06-08T07:21:27.626Z,100304.75
2023-06-08T07:25:23.324Z,100305.63
2023-06-08T07:27:59.221Z,100299.22
2023-06-08T07:31:01.788Z,100301.06
2023-06-08T07:34:05.514Z,100304.75
2023-06-08T07:37:07.962Z,100302.31
2023-06-08T07:40:12.417Z,100308.37
2023-06-08T07:43:14.951Z,100312.72
2023-06-08T07:46:17.253Z,100305.47
2023-06-08T07:49:19.766Z,100306.09
2023-06-08T07:52:21.967Z,100303.31
2023-06-08T07:55:24.454Z,100307.47
2023-06-08T07:58:26.619Z,100307.34
2023-06-08T08:01:29.049Z,100306.53
2023-06-08T08:04:31.623Z,100306.53
2023-06-08T08:07:33.866Z,100306.78
2023-06-08T08:10:36.880Z,100304.81
2023-06-08T08:13:39.850Z,100302.09
2023-06-08T08:16:42.340Z,100302.16
2023-06-08T08:19:45.791Z,100299.19
2023-06-08T08:22:48.972Z,100300.59
2023-06-08T08:25:52.047Z,100297.75
2023-06-08T08:28:54.492Z,100295.16
2023-06-08T08:31:57.462Z,100296.88
2023-06-08T08:35:00.176Z,100289.41
2023-06-08T08:38:02.372Z,100292.06
2023-06-08T08:41:08.219Z,100300.03
2023-06-08T08:44:14.672Z,100298.75
2023-06-08T08:47:18.300Z,100297.03
2023-06-08T08:50:22.592Z,100292.50
2023-06-08T08:53:32.094Z,100291.81
2023-06-08T08:56:39.131Z,100297.63
2023-06-08T08:59:42.633Z,100287.59
2023-06-08T09:02:44.862Z,100291.53
2023-06-08T09:05:52.603Z,100287.63
2023-06-08T09:08:55.922Z,100287.87
2023-06-08T09:12:03.140Z,100284.22
2023-06-08T09:15:06.512Z,100280.75
2023-06-08T09:18:17.988Z,100277.72
2023-06-08T09:21:24.719Z,100271.03
2023-06-08T09:24:28.277Z,100270.72
2023-06-08T09:27:32.335Z,100258.13
2023-06-08T09:30:36.961Z,100261.19
2023-06-08T09:33:39.338Z,100258.59
2023-06-08T09:36:41.854Z,100253.97
2023-06-08T09:39:46.479Z,100258.34
2023-06-08T09:42:54.889Z,100258.38
2023-06-08T09:45:57.990Z,100248.97
2023-06-08T09:49:00.839Z,100245.53
2023-06-08T09:52:07.593Z,100246.16
2023-06-08T09:55:11.640Z,100237.34
2023-06-08T09:58:14.506Z,100243.09
2023-06-08T10:01:19.278Z,100245.94
2023-06-08T10:04:33.486Z,100239.28
2023-06-08T10:07:40.739Z,100236.63
2023-06-08T10:10:43.719Z,100236.38
2023-06-08T10:13:46.254Z,100226.66
2023-06-08T10:16:49.282Z,100220.66
2023-06-08T10:19:51.528Z,100204.00
2023-06-08T10:22:54.811Z,100207.47
2023-06-08T10:25:57.584Z,100205.84
2023-06-08T10:29:21.024Z,100201.97
2023-06-08T10:32:31.322Z,100196.75
2023-06-08T10:35:33.904Z,100202.97
2023-06-08T10:38:57.008Z,100208.31
2023-06-08T10:42:03.052Z,100200.31
2023-06-08T10:45:08.260Z,100205.31
2023-06-08T10:48:14.905Z,100203.44
2023-06-08T10:51:25.859Z,100192.53
2023-06-08T10:54:29.185Z,100194.97
2023-06-08T10:57:36.404Z,100185.81
2023-06-08T11:00:44.307Z,100181.66
2023-06-08T11:03:48.264Z,100178.97
2023-06-08T11:06:51.356Z,100175.00
2023-06-08T11:09:53.908Z,100174.94
2023-06-08T11:12:58.369Z,100171.12
2023-06-08T11:16:02.018Z,100172.03
2023-06-08T11:19:10.119Z,100172.81
2023-06-08T11:22:13.201Z,100175.53
2023-06-08T11:25:20.182Z,100181.56
2023-06-08T11:28:22.357Z,100184.75
2023-06-08T11:31:33.485Z,100182.66
2023-06-08T11:34:35.882Z,100182.97
2023-06-08T11:37:40.546Z,100183.91
2023-06-08T11:40:43.907Z,100174.28
2023-06-08T11:43:50.487Z,100169.41
2023-06-08T11:46:53.723Z,100171.19
2023-06-08T11:50:00.211Z,100160.59
2023-06-08T11:53:03.566Z,100159.06
2023-06-08T11:56:09.924Z,100147.66
2023-06-08T11:59:16.735Z,100142.31
2023-06-08T12:02:23.603Z,100129.88
2023-06-08T12:05:27.372Z,100123.94
2023-06-08T12:08:29.795Z,100108.37
2023-06-08T12:11:36.569Z,100116.34
2023-06-08T12:14:46.567Z,100116.53
2023-06-08T12:17:49.150Z,100114.63
2023-06-08T12:20:54.864Z,100114.28
2023-06-08T12:23:58.485Z,100110.09
2023-06-08T12:27:00.758Z,100106.19
2023-06-08T12:30:07.692Z,100107.28
2023-06-08T12:33:12.522Z,100107.28
2023-06-08T12:36:15.490Z,100109.34
2023-06-08T12:39:17.731Z,100111.41
2023-06-08T12:42:21.928Z,100112.97
2023-06-08T12:45:24.351Z,100114.34
2023-06-08T12:48:26.976Z,100119.25
2023-06-08T12:51:29.294Z,100103.22
2023-06-08T12:54:34.055Z,100102.13
2023-06-08T12:57:37.624Z,100103.31
2023-06-08T13:00:40.057Z,100096.81
2023-06-08T13:03:44.139Z,100087.28
2023-06-08T13:06:47.145Z,100102.28
2023-06-08T13:09:49.379Z,100104.69
2023-06-08T13:12:51.783Z,100101.34
2023-06-08T13:15:55.379Z,100105.25
2023-06-08T13:18:57.936Z,100104.69
2023-06-08T13:22:00.400Z,100115.56
2023-06-08T13:25:02.962Z,100115.03
2023-06-08T13:28:07.375Z,100114.25
2023-06-08T13:31:09.971Z,100111.06
2023-06-08T13:34:12.405Z,100106.75
2023-06-08T13:37:14.820Z,100104.47
2023-06-08T13:40:17.031Z,100102.09
2023-06-08T13:43:19.517Z,100103.03
2023-06-08T13:46:23.719Z,100104.84
2023-06-08T13:49:26.229Z,100096.22
2023-06-08T13:52:30.503Z,100092.03
2023-06-08T13:55:33.376Z,100090.88
2023-06-08T13:58:35.648Z,100093.22
2023-06-08T14:01:38.077Z,100089.81
2023-06-08T14:04:40.855Z,100087.78
2023-06-08T14:07:45.520Z,100077.41
2023-06-08T14:10:48.140Z,100071.28
2023-06-08T14:13:50.322Z,100068.31
2023-06-08T14:16:52.772Z,100065.00
2023-06-08T14:19:55.118Z,100057.50
2023-06-08T14:22:57.666Z,100055.22
2023-06-08T14:25:59.829Z,100043.25
2023-06-08T14:29:02.267Z,100038.31
2023-06-08T14:32:04.846Z,100030.97
2023-06-08T14:35:08.493Z,100029.25
2023-06-08T14:38:13.971Z,100042.94
2023-06-08T14:41:16.740Z,100043.38
2023-06-08T14:44:18.899Z,100041.50
2023-06-08T14:47:21.570Z,100039.19
2023-06-08T14:50:23.788Z,100039.19
2023-06-08T14:53:26.717Z,100049.50
2023-06-08T14:56:31.675Z,100051.09
2023-06-08T14:59:34.320Z,100045.59
2023-06-08T15:02:37.036Z,100035.31
2023-06-08T15:05:41.486Z,100021.03
2023-06-08T15:08:43.664Z,100021.28
2023-06-08T15:11:46.132Z,100015.75
2023-06-08T15:14:51.665Z,100014.13
2023-06-08T15:17:54.471Z,100010.56
2023-06-08T15:20:56.670Z,100007.91
2023-06-08T15:23:59.143Z,100007.53
2023-06-08T15:27:01.331Z,100011.09
2023-06-08T15:30:05.853Z,100008.56
2023-06-08T15:33:08.229Z,100009.28
2023-06-08T15:36:11.101Z,100017.59
2023-06-08T15:39:13.324Z,100007.81
2023-06-08T15:42:18.891Z,100015.91
2023-06-08T15:45:21.563Z,100013.50
2023-06-08T15:48:24.121Z,100025.75
